Brush Fork, West Virginia
Current Conditions -  °F | °C
As of 12:52 PM on Sunday 21 Dec 2014 (Local Time) from KBLF Reporting Station
Broken Clouds Broken Clouds  
Wind Chill: 38°   Ceiling: 1900
Heat Index: 41°   Visibility: 10mi
Dew Point: 29°   Wind: 5mph
Humidity: 62%   Direction: NA
Pressure: 30.17"   Gusts: NA
Location:  37.2994°N, 81.226°W
Report Text: KBLF 211752Z AUTO VRB04KT 10SM BKN019 05/M02 A3017 RMK AO2 SLP225 T00501017 10056 21011 58019
Loading
Personal Weather Stations






























Interactive Weather Map New forecast layout! Learn more

10-Day Weather Forecast

Advertisements
Track Severe Weather on mobile